Fisktrans — LIAB — position and weather

sailwx.info

Track history (hours):
 
Tides and Currents Weather Stations Pressure Air Temp Water Temp Dewpoint Dewpoint Depression Visibility Wind Speed Wind Dir Waves Ship Positions

Fisktrans

Last reported at 2014-Nov-26 18:28 UTC. Time now 2014-Nov-29 09:52 UTC.
Position N 64°50' E 011°11'.

Length 58 m.

Type: Cargo ship. MMSI: 258034000.

Date/timePositionNaut miles runAvg speedWind from/ knotsBaromVisibWave heightAir tempDewpointWater temp
2014-Nov-26 18:28N 64°50' E 011°11'108 9.7
2014-Nov-26 07:22N 66°28' E 012°59'35 9.0
2014-Nov-26 03:25N 66°60' E 013°39'17 9.0
2014-Nov-26 01:33N 67°12' E 014°08'9 9.1
2014-Nov-26 00:33N 67°20' E 014°21'6 6.0
2014-Nov-25 23:33N 67°26' E 014°27'8 7.5
2014-Nov-25 22:28N 67°33' E 014°21'159 5.1
2014-Nov-24 15:33N 69°37' E 018°55'1 1.0
2014-Nov-24 14:33N 69°38' E 018°57'0 0.0
2014-Nov-24 13:33N 69°38' E 018°57'0 0.0
2014-Nov-24 12:33N 69°38' E 018°57'0 0.0
2014-Nov-24 11:33N 69°38' E 018°57'0 0.0
2014-Nov-24 10:33N 69°38' E 018°57'0 0.2
2014-Nov-24 09:33N 69°38' E 018°56'153 9.5
2014-Nov-23 17:31N 67°39' E 014°31'1010.2
2014-Nov-23 16:33N 67°29' E 014°29'1010.1
2014-Nov-23 15:33N 67°19' E 014°23'2 2.1
2014-Nov-23 14:33N 67°17' E 014°23'0 0.0
2014-Nov-23 13:33N 67°17' E 014°23'0 0.0
2014-Nov-23 12:34N 67°17' E 014°23'0 0.0
2014-Nov-23 11:34N 67°17' E 014°23'0 0.0
2014-Nov-23 10:33N 67°17' E 014°23'0 0.0
2014-Nov-23 09:33N 67°17' E 014°23'0 0.3
2014-Nov-23 08:34N 67°17' E 014°23'0 0.1
2014-Nov-23 07:33N 67°17' E 014°23'10 8.6
2014-Nov-23 06:25N 67°10' E 014°05'40 9.3
2014-Nov-23 02:10N 66°42' E 012°54'8 9.6
2014-Nov-23 01:19N 66°39' E 012°35'810.0
2014-Nov-23 00:31N 66°34' E 012°20'7 7.2
2014-Nov-22 23:33N 66°30' E 012°06'1 0.1
2014-Nov-22 19:10N 66°30' E 012°06'1 1.6
2014-Nov-22 18:33N 66°29' E 012°05'7 7.0
2014-Nov-22 17:33N 66°33' E 012°20'59 2.2
2014-Nov-21 15:12N 67°19' E 013°56'710.1
2014-Nov-21 14:34N 67°17' E 014°12'4 4.4
2014-Nov-21 13:33N 67°17' E 014°23'0 0.0
2014-Nov-21 12:33N 67°17' E 014°23'0 0.0
2014-Nov-21 11:34N 67°17' E 014°23'0 0.0
2014-Nov-21 10:34N 67°17' E 014°23'0 0.0
2014-Nov-21 09:33N 67°17' E 014°23'0 0.0
2014-Nov-21 08:33N 67°17' E 014°23'0 0.0
2014-Nov-21 07:34N 67°17' E 014°23'0 0.0
2014-Nov-21 06:34N 67°17' E 014°23'0 0.0
2014-Nov-21 05:34N 67°17' E 014°23'1 0.9
2014-Nov-21 04:34N 67°17' E 014°21'10 9.9
2014-Nov-21 03:32N 67°09' E 014°03'1310.1
2014-Nov-21 02:17N 67°00' E 013°40'34 8.4
2014-Nov-20 22:17N 66°39' E 012°34'6 8.1
2014-Nov-20 21:33N 66°35' E 012°23'8 8.5
2014-Nov-20 20:33N 66°29' E 012°08'2 0.1
2014-Nov-20 08:33N 66°30' E 012°06'  
2014-Nov-17 08:04N 66°28' E 011°47'5 9.7
2014-Nov-17 07:32N 66°32' E 011°54'9510.3
2014-Nov-16 22:20N 67°48' E 014°22'  
Track history (hours):
 
Tides and Currents Weather Stations Pressure Air Temp Water Temp Dewpoint Dewpoint Depression Visibility Wind Speed Wind Dir Waves Ship Positions

Fisktrans

Last reported at 2014-Nov-26 18:28 UTC. Time now 2014-Nov-29 09:52 UTC.
Position N 64°50' E 011°11'.

Length 58 m.

Type: Cargo ship. MMSI: 258034000.

Date/timePositionNaut miles runAvg speedWind from/ knotsBaromVisibWave heightAir tempDewpointWater temp
2014-Nov-26 18:28N 64°50' E 011°11'108 9.7
2014-Nov-26 07:22N 66°28' E 012°59'35 9.0
2014-Nov-26 03:25N 66°60' E 013°39'17 9.0
2014-Nov-26 01:33N 67°12' E 014°08'9 9.1
2014-Nov-26 00:33N 67°20' E 014°21'6 6.0
2014-Nov-25 23:33N 67°26' E 014°27'8 7.5
2014-Nov-25 22:28N 67°33' E 014°21'159 5.1
2014-Nov-24 15:33N 69°37' E 018°55'1 1.0
2014-Nov-24 14:33N 69°38' E 018°57'0 0.0
2014-Nov-24 13:33N 69°38' E 018°57'0 0.0
2014-Nov-24 12:33N 69°38' E 018°57'0 0.0
2014-Nov-24 11:33N 69°38' E 018°57'0 0.0
2014-Nov-24 10:33N 69°38' E 018°57'0 0.2
2014-Nov-24 09:33N 69°38' E 018°56'153 9.5
2014-Nov-23 17:31N 67°39' E 014°31'1010.2
2014-Nov-23 16:33N 67°29' E 014°29'1010.1
2014-Nov-23 15:33N 67°19' E 014°23'2 2.1
2014-Nov-23 14:33N 67°17' E 014°23'0 0.0
2014-Nov-23 13:33N 67°17' E 014°23'0 0.0
2014-Nov-23 12:34N 67°17' E 014°23'0 0.0
2014-Nov-23 11:34N 67°17' E 014°23'0 0.0
2014-Nov-23 10:33N 67°17' E 014°23'0 0.0
2014-Nov-23 09:33N 67°17' E 014°23'0 0.3
2014-Nov-23 08:34N 67°17' E 014°23'0 0.1
2014-Nov-23 07:33N 67°17' E 014°23'10 8.6
2014-Nov-23 06:25N 67°10' E 014°05'40 9.3
2014-Nov-23 02:10N 66°42' E 012°54'8 9.6
2014-Nov-23 01:19N 66°39' E 012°35'810.0
2014-Nov-23 00:31N 66°34' E 012°20'7 7.2
2014-Nov-22 23:33N 66°30' E 012°06'1 0.1
2014-Nov-22 19:10N 66°30' E 012°06'1 1.6
2014-Nov-22 18:33N 66°29' E 012°05'7 7.0
2014-Nov-22 17:33N 66°33' E 012°20'59 2.2
2014-Nov-21 15:12N 67°19' E 013°56'710.1
2014-Nov-21 14:34N 67°17' E 014°12'4 4.4
2014-Nov-21 13:33N 67°17' E 014°23'0 0.0
2014-Nov-21 12:33N 67°17' E 014°23'0 0.0
2014-Nov-21 11:34N 67°17' E 014°23'0 0.0
2014-Nov-21 10:34N 67°17' E 014°23'0 0.0
2014-Nov-21 09:33N 67°17' E 014°23'0 0.0
2014-Nov-21 08:33N 67°17' E 014°23'0 0.0
2014-Nov-21 07:34N 67°17' E 014°23'0 0.0
2014-Nov-21 06:34N 67°17' E 014°23'0 0.0
2014-Nov-21 05:34N 67°17' E 014°23'1 0.9
2014-Nov-21 04:34N 67°17' E 014°21'10 9.9
2014-Nov-21 03:32N 67°09' E 014°03'1310.1
2014-Nov-21 02:17N 67°00' E 013°40'34 8.4
2014-Nov-20 22:17N 66°39' E 012°34'6 8.1
2014-Nov-20 21:33N 66°35' E 012°23'8 8.5
2014-Nov-20 20:33N 66°29' E 012°08'2 0.1
2014-Nov-20 08:33N 66°30' E 012°06'  
2014-Nov-17 08:04N 66°28' E 011°47'5 9.7
2014-Nov-17 07:32N 66°32' E 011°54'9510.3
2014-Nov-16 22:20N 67°48' E 014°22'  

Dump ship's entire track history